Aeroporto :







RITROVATECI SU...

 
LOGIN :

Iscrizione | Disclaimer

   EN    FR    IT 

 









Sommario :    VFR   VFR Marginale   IFR   IFR Intensivo   IFR Molto Intensivo
Visibilità : 
Base nubi : 
>= 8 km
>= 3000ft
5 / 8 km
1000 / 3000 ft
1500m / 5 km
500 / 1000 ft
800 / 1500m
200 / 500 ft
< 800m
< 200 ft
Simboli :   Temporali  Nebbia  Neve Forte  Precipitazioni Forti  Vento > 20 kt






- Altitudine del aeroporto : 26 ft
- Codice IATA : BLA


SVBC - Gen. Jose Antonio Anzoategui I

ULTIMO METAR :
  • 251202Z AUTO 15002KT NCD 24/24 Q1013

METARs OBSOLETI :
  • 251102Z AUTO 20002KT NCD 24/24 Q1013
  • 251002Z AUTO 17002KT NCD 24/24 Q1012

TAF TAF SVBC
Valido dal 24 a 18 ore il 25 a 18 ore UTC


242200Z 2418/2518 06005KT 9999 FEW010 TX33/18Z TN24/08Z
TEMPO 2404/2404 07008KT SCT010 SCT070



MetMap, La meteo Aeronautica in un colpo d'occhio ! - Copyright ORBIFLY Dicembre 2007 - Disclaimer

ORBIFLY MET'MAP TEAM :

Programmazione e sviluppo : Alexandra Zaïnal
Concezione : Baudouin d'Aumeries
Aiuto per la programmazione : Marc-Olivier Méhu
Supporto tecnico e logistico : Manuel Goepfert
Aiuto per la traduzione : Arnaldo La Scala

Contatto : metmap@orbifly.com




FONTI E CREDITI :

   NOAA